Terminal Aerodrome Forecast
Issued by NWS Austin/San Antonio, TX

Current Version | Previous Version | Text Only | Print | Product List | Glossary On
Versions: 1 2 3 4 5 6 7 8 9 10 11 12 13 14 15 16
000
FTUS44 KEWX 282338
TAFAUS
TAF
KAUS 282338Z 2900/3006 18011KT P6SM SKC
     FM291100 19005KT P6SM SCT010
     FM291600 19017G27KT P6SM FEW030
     FM292000 18019G30KT P6SM FEW250
     FM300100 18014KT P6SM SCT250=

USA.gov is the U.S. government's official web portal to all federal, state and local government web resources and services.